Portosanto — EAPR — position and weather

sailwx.info

Track history (hours):
 
Tides and Currents Weather Stations Pressure Air Temp Water Temp Dewpoint Dewpoint Depression Visibility Wind Speed Wind Dir Waves Ship Positions

Portosanto

Last reported at 2018-Jun-15 21:54 UTC. Time now 2018-Jun-19 20:14 UTC.
Position N 39°05' W 009°47'.

Length 27 m; draft 3 m.

Type: Fishing. MMSI: 225353000.

Date/timePositionNaut miles runAvg speedWind from/ knotsBaromVisibWave heightAir tempDewpointWater temp
2018-Jun-15 21:54N 39°05' W 009°47'1 3.2
2018-Jun-15 21:30N 39°05' W 009°49'3 3.1
2018-Jun-15 20:38N 39°04' W 009°52'1 3.0
2018-Jun-15 20:25N 39°03' W 009°53'1 2.9
2018-Jun-15 19:58N 39°02' W 009°54'2 3.1
2018-Jun-15 19:18N 39°01' W 009°56'1 3.0
2018-Jun-15 19:00N 39°00' W 009°57'2 3.0
2018-Jun-15 18:30N 38°59' W 009°58'2 3.8
2018-Jun-15 18:00N 38°58' W 009°60'5 9.7
2018-Jun-15 17:30N 38°56' W 010°06'1 0.8
2018-Jun-15 16:45N 38°57' W 010°06'1 2.9
2018-Jun-15 16:30N 38°58' W 010°06'2 2.9
2018-Jun-15 15:58N 38°59' W 010°05'2 2.9
2018-Jun-15 15:24N 39°00' W 010°03'5 0.5
2018-Jun-15 05:50N 38°58' W 009°58'3 7.7
2018-Jun-15 05:30N 39°01' W 009°58'2 1.8
2018-Jun-15 04:39N 39°02' W 009°56'1 3.1
2018-Jun-15 04:30N 39°02' W 009°56'2 3.1
2018-Jun-15 04:00N 39°03' W 009°54'2 3.2
2018-Jun-15 03:17N 39°04' W 009°52'1 3.1
2018-Jun-15 03:00N 39°05' W 009°51'2 3.1
2018-Jun-15 02:30N 39°05' W 009°49'2 3.6
2018-Jun-15 01:59N 39°05' W 009°46'1 1.1
2018-Jun-15 01:31N 39°05' W 009°47'0 0.5
2018-Jun-15 01:00N 39°05' W 009°47'1 1.7
2018-Jun-15 00:30N 39°05' W 009°48'2 3.1
2018-Jun-14 23:56N 39°05' W 009°50'1 3.2
2018-Jun-14 23:28N 39°04' W 009°52'1 3.2
2018-Jun-14 23:00N 39°03' W 009°53'3 0.3
2018-Jun-14 13:30N 39°01' W 009°56'3 2.6
2018-Jun-14 12:18N 38°58' W 009°55'1 3.1
2018-Jun-14 11:53N 38°57' W 009°56'2 0.5
2018-Jun-14 08:16N 38°57' W 009°58'1 3.1
2018-Jun-14 07:59N 38°57' W 009°58'2 3.1
2018-Jun-14 07:30N 38°59' W 009°57'2 3.0
2018-Jun-14 06:58N 39°00' W 009°56'2 3.1
2018-Jun-14 06:28N 39°02' W 009°55'1 3.0
2018-Jun-14 06:00N 39°03' W 009°54'2 3.0
2018-Jun-14 05:30N 39°03' W 009°53'2 4.7
2018-Jun-14 05:01N 39°05' W 009°51'1 1.4
2018-Jun-14 04:30N 39°06' W 009°51'2 3.0
2018-Jun-14 03:59N 39°08' W 009°51'  
2018-Jun-09 02:09N 39°15' W 009°51'1 3.1
2018-Jun-09 01:59N 39°14' W 009°51'2 3.1
2018-Jun-09 01:27N 39°13' W 009°51'1 3.1
2018-Jun-09 01:00N 39°11' W 009°51'2 3.1
2018-Jun-09 00:22N 39°09' W 009°50'2 4.8
2018-Jun-09 00:00N 39°08' W 009°50'3 2.9
2018-Jun-08 22:53N 39°05' W 009°47'1 3.2
2018-Jun-08 22:30N 39°05' W 009°48'2 3.1
2018-Jun-08 22:00N 39°05' W 009°50'2 3.1
2018-Jun-08 21:30N 39°04' W 009°52'2 3.1
2018-Jun-08 21:00N 39°03' W 009°54'2 3.2
2018-Jun-08 20:30N 39°02' W 009°55'2 3.7
2018-Jun-08 20:01N 38°60' W 009°55'1 2.5
2018-Jun-08 19:31N 39°00' W 009°54'1 2.8
2018-Jun-08 19:00N 39°01' W 009°55'2 3.1
2018-Jun-08 18:30N 39°02' W 009°57'2 3.1
2018-Jun-08 18:01N 39°03' W 009°58'1 2.7
2018-Jun-08 17:30N 39°04' W 009°60'2 3.1
2018-Jun-08 17:00N 39°04' W 010°02'2 3.1
2018-Jun-08 16:30N 39°05' W 010°03'1 2.8
2018-Jun-08 16:00N 39°06' W 010°05'3 0.9
2018-Jun-08 12:58N 39°04' W 010°04'2 3.0
2018-Jun-08 12:24N 39°02' W 010°03'2 3.1
2018-Jun-08 11:50N 39°01' W 010°01'1 3.1
2018-Jun-08 11:28N 39°00' W 010°00'1 3.2
2018-Jun-08 11:00N 38°59' W 009°59'2 3.1
2018-Jun-08 10:30N 38°59' W 009°57'2 3.8
2018-Jun-08 10:00N 38°58' W 009°55'2 4.1
2018-Jun-08 09:30N 38°60' W 009°56'3 5.1
2018-Jun-08 09:00N 39°02' W 009°58'1 2.0
2018-Jun-08 08:30N 39°02' W 009°57'2 3.2
2018-Jun-08 08:00N 39°03' W 009°55'2 3.2
2018-Jun-08 07:30N 39°03' W 009°53'2 3.2
2018-Jun-08 07:00N 39°05' W 009°52'2 3.2
2018-Jun-08 06:30N 39°05' W 009°50'1 3.0
2018-Jun-08 06:00N 39°05' W 009°48'2 3.8
2018-Jun-08 05:30N 39°05' W 009°45'1 2.1
2018-Jun-08 05:00N 39°05' W 009°47'1 1.3
2018-Jun-08 04:30N 39°05' W 009°48'2 3.2
2018-Jun-08 04:00N 39°05' W 009°50'2 3.2
2018-Jun-08 03:30N 39°04' W 009°51'2 3.3
2018-Jun-08 03:00N 39°03' W 009°53'2 3.2
2018-Jun-08 02:30N 39°02' W 009°55'2 3.4
2018-Jun-08 02:00N 39°01' W 009°55'3 5.8
2018-Jun-08 01:30N 39°02' W 009°52'1 1.9
2018-Jun-08 01:00N 39°03' W 009°52'2 3.1
2018-Jun-08 00:30N 39°05' W 009°52'2 3.2
2018-Jun-08 00:00N 39°06' W 009°51'2 3.2
2018-Jun-07 23:31N 39°08' W 009°51'2 3.1
2018-Jun-07 22:52N 39°10' W 009°52'1 3.2
2018-Jun-07 22:30N 39°11' W 009°52'1 1.8
2018-Jun-07 21:52N 39°11' W 009°51'1 3.2
2018-Jun-07 21:31N 39°10' W 009°51'2 3.1
2018-Jun-07 21:00N 39°08' W 009°50'1 2.0
2018-Jun-07 20:30N 39°08' W 009°49'1 1.7
2018-Jun-07 20:01N 39°09' W 009°49'2 3.2
2018-Jun-07 19:31N 39°10' W 009°50'2 3.2
2018-Jun-07 19:00N 39°11' W 009°52'2 3.1
2018-Jun-07 18:31N 39°12' W 009°54'2 3.1
2018-Jun-07 17:58N 39°13' W 009°55'2 0.3
2018-Jun-07 12:27N 39°12' W 009°57'1 3.0
2018-Jun-07 12:00N 39°12' W 009°56'2 3.0
2018-Jun-07 11:22N 39°11' W 009°54'1 3.1
2018-Jun-07 11:01N 39°10' W 009°53'2 3.2
2018-Jun-07 10:30N 39°08' W 009°52'2 4.8
2018-Jun-07 10:00N 39°07' W 009°50'1 2.2
2018-Jun-07 09:30N 39°06' W 009°51'1 2.8
2018-Jun-07 09:00N 39°07' W 009°50'2 3.1
2018-Jun-07 08:30N 39°09' W 009°49'2 3.1
2018-Jun-07 08:00N 39°10' W 009°50'2 3.1
2018-Jun-07 07:24N 39°12' W 009°51'1 3.0
2018-Jun-07 07:00N 39°13' W 009°51'2 3.0
2018-Jun-07 06:30N 39°15' W 009°51'2 3.1
2018-Jun-07 05:55N 39°16' W 009°50'2 3.1
2018-Jun-07 05:24N 39°18' W 009°50'2 3.2
2018-Jun-07 04:47N 39°20' W 009°49'2 4.2
2018-Jun-07 04:24N 39°21' W 009°48'  
Track history (hours):
 
Tides and Currents Weather Stations Pressure Air Temp Water Temp Dewpoint Dewpoint Depression Visibility Wind Speed Wind Dir Waves Ship Positions

Portosanto

Last reported at 2018-Jun-15 21:54 UTC. Time now 2018-Jun-19 20:14 UTC.
Position N 39°05' W 009°47'.

Length 27 m; draft 3 m.

Type: Fishing. MMSI: 225353000.

Date/timePositionNaut miles runAvg speedWind from/ knotsBaromVisibWave heightAir tempDewpointWater temp
2018-Jun-15 21:54N 39°05' W 009°47'1 3.2
2018-Jun-15 21:30N 39°05' W 009°49'3 3.1
2018-Jun-15 20:38N 39°04' W 009°52'1 3.0
2018-Jun-15 20:25N 39°03' W 009°53'1 2.9
2018-Jun-15 19:58N 39°02' W 009°54'2 3.1
2018-Jun-15 19:18N 39°01' W 009°56'1 3.0
2018-Jun-15 19:00N 39°00' W 009°57'2 3.0
2018-Jun-15 18:30N 38°59' W 009°58'2 3.8
2018-Jun-15 18:00N 38°58' W 009°60'5 9.7
2018-Jun-15 17:30N 38°56' W 010°06'1 0.8
2018-Jun-15 16:45N 38°57' W 010°06'1 2.9
2018-Jun-15 16:30N 38°58' W 010°06'2 2.9
2018-Jun-15 15:58N 38°59' W 010°05'2 2.9
2018-Jun-15 15:24N 39°00' W 010°03'5 0.5
2018-Jun-15 05:50N 38°58' W 009°58'3 7.7
2018-Jun-15 05:30N 39°01' W 009°58'2 1.8
2018-Jun-15 04:39N 39°02' W 009°56'1 3.1
2018-Jun-15 04:30N 39°02' W 009°56'2 3.1
2018-Jun-15 04:00N 39°03' W 009°54'2 3.2
2018-Jun-15 03:17N 39°04' W 009°52'1 3.1
2018-Jun-15 03:00N 39°05' W 009°51'2 3.1
2018-Jun-15 02:30N 39°05' W 009°49'2 3.6
2018-Jun-15 01:59N 39°05' W 009°46'1 1.1
2018-Jun-15 01:31N 39°05' W 009°47'0 0.5
2018-Jun-15 01:00N 39°05' W 009°47'1 1.7
2018-Jun-15 00:30N 39°05' W 009°48'2 3.1
2018-Jun-14 23:56N 39°05' W 009°50'1 3.2
2018-Jun-14 23:28N 39°04' W 009°52'1 3.2
2018-Jun-14 23:00N 39°03' W 009°53'3 0.3
2018-Jun-14 13:30N 39°01' W 009°56'3 2.6
2018-Jun-14 12:18N 38°58' W 009°55'1 3.1
2018-Jun-14 11:53N 38°57' W 009°56'2 0.5
2018-Jun-14 08:16N 38°57' W 009°58'1 3.1
2018-Jun-14 07:59N 38°57' W 009°58'2 3.1
2018-Jun-14 07:30N 38°59' W 009°57'2 3.0
2018-Jun-14 06:58N 39°00' W 009°56'2 3.1
2018-Jun-14 06:28N 39°02' W 009°55'1 3.0
2018-Jun-14 06:00N 39°03' W 009°54'2 3.0
2018-Jun-14 05:30N 39°03' W 009°53'2 4.7
2018-Jun-14 05:01N 39°05' W 009°51'1 1.4
2018-Jun-14 04:30N 39°06' W 009°51'2 3.0
2018-Jun-14 03:59N 39°08' W 009°51'  
2018-Jun-09 02:09N 39°15' W 009°51'1 3.1
2018-Jun-09 01:59N 39°14' W 009°51'2 3.1
2018-Jun-09 01:27N 39°13' W 009°51'1 3.1
2018-Jun-09 01:00N 39°11' W 009°51'2 3.1
2018-Jun-09 00:22N 39°09' W 009°50'2 4.8
2018-Jun-09 00:00N 39°08' W 009°50'3 2.9
2018-Jun-08 22:53N 39°05' W 009°47'1 3.2
2018-Jun-08 22:30N 39°05' W 009°48'2 3.1
2018-Jun-08 22:00N 39°05' W 009°50'2 3.1
2018-Jun-08 21:30N 39°04' W 009°52'2 3.1
2018-Jun-08 21:00N 39°03' W 009°54'2 3.2
2018-Jun-08 20:30N 39°02' W 009°55'2 3.7
2018-Jun-08 20:01N 38°60' W 009°55'1 2.5
2018-Jun-08 19:31N 39°00' W 009°54'1 2.8
2018-Jun-08 19:00N 39°01' W 009°55'2 3.1
2018-Jun-08 18:30N 39°02' W 009°57'2 3.1
2018-Jun-08 18:01N 39°03' W 009°58'1 2.7
2018-Jun-08 17:30N 39°04' W 009°60'2 3.1
2018-Jun-08 17:00N 39°04' W 010°02'2 3.1
2018-Jun-08 16:30N 39°05' W 010°03'1 2.8
2018-Jun-08 16:00N 39°06' W 010°05'3 0.9
2018-Jun-08 12:58N 39°04' W 010°04'2 3.0
2018-Jun-08 12:24N 39°02' W 010°03'2 3.1
2018-Jun-08 11:50N 39°01' W 010°01'1 3.1
2018-Jun-08 11:28N 39°00' W 010°00'1 3.2
2018-Jun-08 11:00N 38°59' W 009°59'2 3.1
2018-Jun-08 10:30N 38°59' W 009°57'2 3.8
2018-Jun-08 10:00N 38°58' W 009°55'2 4.1
2018-Jun-08 09:30N 38°60' W 009°56'3 5.1
2018-Jun-08 09:00N 39°02' W 009°58'1 2.0
2018-Jun-08 08:30N 39°02' W 009°57'2 3.2
2018-Jun-08 08:00N 39°03' W 009°55'2 3.2
2018-Jun-08 07:30N 39°03' W 009°53'2 3.2
2018-Jun-08 07:00N 39°05' W 009°52'2 3.2
2018-Jun-08 06:30N 39°05' W 009°50'1 3.0
2018-Jun-08 06:00N 39°05' W 009°48'2 3.8
2018-Jun-08 05:30N 39°05' W 009°45'1 2.1
2018-Jun-08 05:00N 39°05' W 009°47'1 1.3
2018-Jun-08 04:30N 39°05' W 009°48'2 3.2
2018-Jun-08 04:00N 39°05' W 009°50'2 3.2
2018-Jun-08 03:30N 39°04' W 009°51'2 3.3
2018-Jun-08 03:00N 39°03' W 009°53'2 3.2
2018-Jun-08 02:30N 39°02' W 009°55'2 3.4
2018-Jun-08 02:00N 39°01' W 009°55'3 5.8
2018-Jun-08 01:30N 39°02' W 009°52'1 1.9
2018-Jun-08 01:00N 39°03' W 009°52'2 3.1
2018-Jun-08 00:30N 39°05' W 009°52'2 3.2
2018-Jun-08 00:00N 39°06' W 009°51'2 3.2
2018-Jun-07 23:31N 39°08' W 009°51'2 3.1
2018-Jun-07 22:52N 39°10' W 009°52'1 3.2
2018-Jun-07 22:30N 39°11' W 009°52'1 1.8
2018-Jun-07 21:52N 39°11' W 009°51'1 3.2
2018-Jun-07 21:31N 39°10' W 009°51'2 3.1
2018-Jun-07 21:00N 39°08' W 009°50'1 2.0
2018-Jun-07 20:30N 39°08' W 009°49'1 1.7
2018-Jun-07 20:01N 39°09' W 009°49'2 3.2
2018-Jun-07 19:31N 39°10' W 009°50'2 3.2
2018-Jun-07 19:00N 39°11' W 009°52'2 3.1
2018-Jun-07 18:31N 39°12' W 009°54'2 3.1
2018-Jun-07 17:58N 39°13' W 009°55'2 0.3
2018-Jun-07 12:27N 39°12' W 009°57'1 3.0
2018-Jun-07 12:00N 39°12' W 009°56'2 3.0
2018-Jun-07 11:22N 39°11' W 009°54'1 3.1
2018-Jun-07 11:01N 39°10' W 009°53'2 3.2
2018-Jun-07 10:30N 39°08' W 009°52'2 4.8
2018-Jun-07 10:00N 39°07' W 009°50'1 2.2
2018-Jun-07 09:30N 39°06' W 009°51'1 2.8
2018-Jun-07 09:00N 39°07' W 009°50'2 3.1
2018-Jun-07 08:30N 39°09' W 009°49'2 3.1
2018-Jun-07 08:00N 39°10' W 009°50'2 3.1
2018-Jun-07 07:24N 39°12' W 009°51'1 3.0
2018-Jun-07 07:00N 39°13' W 009°51'2 3.0
2018-Jun-07 06:30N 39°15' W 009°51'2 3.1
2018-Jun-07 05:55N 39°16' W 009°50'2 3.1
2018-Jun-07 05:24N 39°18' W 009°50'2 3.2
2018-Jun-07 04:47N 39°20' W 009°49'2 4.2
2018-Jun-07 04:24N 39°21' W 009°48'  

Dump ship's entire track history